首页
METAR-TAF:

METAR-TAF

机场 :

巴塞尔-米卢斯-弗赖堡欧洲机场

巴塞尔-米卢斯-弗赖堡欧洲机场, 法国

纬度: 47-36N, 经度: 007-31E, 海拔: 270米

当前天气观测

该预报发布于30分钟前的06:30 UTC
风速4节,风向北转西北
温度 1°C
湿度 100%
气压 1008 hPa
能見度: 0400

METAR: LFSB 170630Z 34004KT 0400 R15/1300D R33/P2000 FG VV/// 01/01 Q1008 NOSIG

时间: 08:00 (07:00 UTC)

预报

该预报发布于2小时和0分钟前的05:00 UTC
预报有效从17日的 06点(UTC)到 18日的 06点(UTC)
风速4节,风向北转西北
能見度: 3000
阴天层高于300英尺
轻雾
短暂存在
从 17日的 06点(UTC)到 17日的 08点(UTC)
能見度: 0400
成为
从 17日的 08点(UTC)到 17日的 10点(UTC)
阴天层高于600英尺
小雨, 雪
短暂存在
从 17日的 09点(UTC)到 17日的 16点(UTC)
小雪
几率 30% :
短暂存在
从 17日的 10点(UTC)到 17日的 14点(UTC)
能見度: 1300
成为
从 17日的 14点(UTC)到 17日的 16点(UTC)
风速10节,风向西转西南
能見度: 7000
阴天层高于1500英尺
小雨, 毛毛雨
成为
从 17日的 19点(UTC)到 17日的 21点(UTC)

TAF: LFSB 170500Z 1706/1806 33004KT 3000 BR OVC003 TEMPO 1706/1708 0400 FG VV/// BECMG 1708/1710 -RASN OVC006 TEMPO 1709/1716 -SN PROB30 TEMPO 1710/1714 1300 SN BECMG 1714/1716 24010KT 7000 -RADZ OVC015 BECMG 1719/1721 NSW

超过4000个机场的气象观测和天气预报(METAR&TAF报告)。

可查询的气象台以黄色和红色小点在地图上表示。

将鼠标移到小点上方,可查看气象台名称。

然后点击查看天气观测和预报。

如需切换地图:点击带黑十字的绿色按钮放大地图;点击带横线的绿色按钮缩小地图;或者点击绿色箭头查看邻近地区的地图。


METAR-TAF: